createdAt,value
2019-05-29T00:01:42.957Z,83.26
2019-05-29T00:04:14.506Z,83.39
2019-05-29T00:06:45.671Z,83.34
2019-05-29T00:09:18.477Z,83.28
2019-05-29T00:11:49.592Z,83.26
2019-05-29T00:14:27.140Z,83.29
2019-05-29T00:16:53.447Z,83.11
2019-05-29T00:19:24.569Z,83.11
2019-05-29T00:21:55.680Z,83.13
2019-05-29T00:24:29.155Z,83.14
2019-05-29T00:27:01.055Z,83.04
2019-05-29T00:29:32.120Z,83.02
2019-05-29T00:32:03.179Z,83.07
2019-05-29T00:34:35.865Z,83.05
2019-05-29T00:37:08.392Z,82.96
2019-05-29T00:39:41.251Z,82.83
2019-05-29T00:42:13.249Z,82.84
2019-05-29T00:44:46.555Z,82.76
2019-05-29T00:47:19.107Z,82.73
2019-05-29T00:49:50.219Z,82.65
2019-05-29T00:52:21.274Z,82.56
2019-05-29T00:54:53.932Z,82.56
2019-05-29T00:57:24.961Z,82.46
2019-05-29T00:59:56.013Z,82.48
2019-05-29T01:02:27.068Z,82.55
2019-05-29T01:04:58.150Z,82.60
2019-05-29T01:07:29.232Z,82.62
2019-05-29T01:10:01.090Z,82.65
2019-05-29T01:12:32.127Z,82.59
2019-05-29T01:15:03.225Z,82.46
2019-05-29T01:17:34.251Z,82.32
2019-05-29T01:20:07.131Z,82.14
2019-05-29T01:22:38.175Z,82.09
2019-05-29T01:25:09.287Z,81.99
2019-05-29T01:27:41.961Z,81.93
2019-05-29T01:30:13.193Z,81.76
2019-05-29T01:32:44.319Z,81.79
2019-05-29T01:35:15.748Z,81.69
2019-05-29T01:37:46.815Z,81.47
2019-05-29T01:40:22.172Z,81.40
2019-05-29T01:42:50.691Z,81.29
2019-05-29T01:45:21.876Z,81.28
2019-05-29T01:47:55.366Z,81.16
2019-05-29T01:50:26.443Z,81.18
2019-05-29T01:52:57.506Z,81.16
2019-05-29T01:55:28.616Z,81.20
2019-05-29T01:58:01.185Z,81.23
2019-05-29T02:00:32.247Z,81.22
2019-05-29T02:03:03.336Z,81.28
2019-05-29T02:05:34.397Z,81.23
2019-05-29T02:08:05.456Z,81.11
2019-05-29T02:10:36.720Z,81.15
2019-05-29T02:13:07.792Z,81.23
2019-05-29T02:15:38.844Z,81.17
2019-05-29T02:18:09.922Z,81.23
2019-05-29T02:20:40.996Z,81.17
2019-05-29T02:23:12.145Z,81.15
2019-05-29T02:25:43.318Z,81.18
2019-05-29T02:28:16.265Z,81.21
2019-05-29T02:30:47.445Z,81.23
2019-05-29T02:33:21.722Z,81.26
2019-05-29T02:35:53.041Z,81.37
2019-05-29T02:38:24.967Z,81.39
2019-05-29T02:40:56.850Z,81.39
2019-05-29T02:43:29.742Z,81.44
2019-05-29T02:46:01.432Z,81.43
2019-05-29T02:48:32.522Z,81.11
2019-05-29T02:51:03.636Z,81.30
2019-05-29T02:53:34.723Z,81.20
2019-05-29T02:56:08.131Z,81.21
2019-05-29T02:58:39.156Z,81.06
2019-05-29T03:01:10.356Z,80.80
2019-05-29T03:03:41.441Z,80.89
2019-05-29T03:06:13.168Z,80.88
2019-05-29T03:08:44.210Z,80.69
2019-05-29T03:11:15.319Z,80.80
2019-05-29T03:13:46.774Z,80.55
2019-05-29T03:16:19.648Z,80.53
2019-05-29T03:18:50.709Z,80.50
2019-05-29T03:21:21.981Z,80.06
2019-05-29T03:23:53.042Z,79.95
2019-05-29T03:26:26.551Z,79.94
2019-05-29T03:28:57.837Z,80.15
2019-05-29T03:31:36.870Z,79.81
2019-05-29T03:34:01.650Z,79.46
2019-05-29T03:36:39.633Z,79.25
2019-05-29T03:39:06.888Z,79.15
2019-05-29T03:41:38.957Z,78.78
2019-05-29T03:44:11.862Z,78.75
2019-05-29T03:46:46.015Z,78.94
2019-05-29T03:49:15.769Z,78.56
2019-05-29T03:51:46.872Z,78.45
2019-05-29T03:54:17.914Z,78.51
2019-05-29T03:56:49.851Z,78.13
2019-05-29T03:59:22.566Z,77.95
2019-05-29T04:01:53.676Z,78.36
2019-05-29T04:04:24.818Z,77.69
2019-05-29T04:06:55.907Z,77.63
2019-05-29T04:09:27.223Z,77.32
2019-05-29T04:11:58.425Z,77.07
2019-05-29T04:14:30.232Z,77.37
2019-05-29T04:17:04.689Z,76.86
2019-05-29T04:19:36.888Z,76.37
2019-05-29T04:22:11.949Z,76.50
2019-05-29T04:24:43.098Z,75.15
2019-05-29T04:27:16.643Z,73.49
2019-05-29T04:29:49.488Z,71.94
2019-05-29T04:32:20.637Z,69.77
2019-05-29T04:34:53.215Z,68.14
2019-05-29T04:37:25.570Z,65.94
2019-05-29T04:39:56.615Z,63.60
2019-05-29T04:42:31.984Z,62.21
2019-05-29T04:45:02.749Z,61.07
2019-05-29T04:47:35.098Z,59.35
2019-05-29T04:50:09.439Z,57.81
2019-05-29T04:52:40.666Z,56.51
2019-05-29T04:55:11.811Z,55.17
2019-05-29T04:57:45.315Z,53.81
2019-05-29T05:00:18.120Z,52.53
2019-05-29T05:02:50.867Z,50.70
2019-05-29T05:05:23.535Z,50.90
2019-05-29T05:07:56.234Z,49.28
2019-05-29T05:10:40.758Z,49.52
2019-05-29T05:13:13.139Z,49.11
2019-05-29T05:15:46.913Z,49.78
2019-05-29T05:18:18.082Z,50.19
2019-05-29T05:20:52.363Z,51.07
2019-05-29T05:23:23.472Z,51.35
2019-05-29T05:25:56.098Z,50.72
2019-05-29T05:28:28.160Z,50.51
2019-05-29T05:31:00.095Z,50.70
2019-05-29T05:33:32.360Z,49.66
2019-05-29T05:36:03.521Z,48.24
2019-05-29T05:38:34.691Z,46.72
2019-05-29T05:41:07.346Z,46.28
2019-05-29T05:43:41.402Z,45.27
2019-05-29T05:46:12.599Z,45.25
2019-05-29T05:48:44.484Z,44.54
2019-05-29T05:51:17.060Z,44.36
2019-05-29T05:53:48.165Z,43.98
2019-05-29T05:56:19.266Z,44.52
2019-05-29T05:58:53.451Z,43.92
2019-05-29T06:01:24.502Z,43.02
2019-05-29T06:03:55.606Z,42.02
2019-05-29T06:06:26.691Z,42.50
2019-05-29T06:08:57.757Z,43.18
2019-05-29T06:11:28.814Z,43.51
2019-05-29T06:13:59.912Z,43.24
2019-05-29T06:16:32.683Z,43.45
2019-05-29T06:19:03.764Z,43.01
2019-05-29T06:21:34.801Z,42.53
2019-05-29T06:24:05.902Z,42.46
2019-05-29T06:26:36.987Z,42.07
2019-05-29T06:29:08.873Z,41.48
2019-05-29T06:31:41.458Z,42.39
2019-05-29T06:34:12.528Z,41.80
2019-05-29T06:36:44.024Z,41.74
2019-05-29T06:39:15.175Z,41.42
2019-05-29T06:41:46.197Z,41.94
2019-05-29T06:44:20.905Z,42.68
2019-05-29T06:46:53.553Z,42.43
2019-05-29T06:49:24.623Z,42.46
2019-05-29T06:51:55.783Z,41.86
2019-05-29T06:54:26.848Z,42.49
2019-05-29T06:56:57.907Z,43.02
2019-05-29T06:59:29.767Z,44.79
2019-05-29T07:02:00.862Z,44.32
2019-05-29T07:04:33.499Z,43.59
2019-05-29T07:07:04.554Z,43.24
2019-05-29T07:09:36.805Z,41.87
2019-05-29T07:12:07.938Z,42.31
2019-05-29T07:14:40.040Z,42.15
2019-05-29T07:17:11.434Z,41.90
2019-05-29T07:19:53.969Z,43.53
2019-05-29T07:22:15.250Z,43.23
2019-05-29T07:24:48.576Z,44.49
2019-05-29T07:27:19.591Z,44.65
2019-05-29T07:29:51.464Z,44.75
2019-05-29T07:32:23.307Z,43.57
2019-05-29T07:35:03.049Z,42.79
2019-05-29T07:37:27.220Z,41.58
2019-05-29T07:39:58.348Z,40.31
2019-05-29T07:42:29.365Z,41.23
2019-05-29T07:45:00.487Z,40.30
2019-05-29T07:47:31.525Z,40.93
2019-05-29T07:50:04.209Z,39.89
2019-05-29T07:52:36.086Z,40.50
2019-05-29T07:55:08.035Z,41.57
2019-05-29T07:57:39.086Z,41.39
2019-05-29T08:00:12.586Z,41.92
2019-05-29T08:02:43.636Z,41.78
2019-05-29T08:05:16.295Z,41.02
2019-05-29T08:07:49.689Z,41.04
2019-05-29T08:10:21.035Z,40.94
2019-05-29T08:12:55.594Z,40.23
2019-05-29T08:15:24.995Z,40.87
2019-05-29T08:17:56.035Z,40.61
2019-05-29T08:20:28.553Z,40.19
2019-05-29T08:22:59.652Z,40.67
2019-05-29T08:25:30.785Z,41.30
2019-05-29T08:28:01.831Z,41.89
2019-05-29T08:30:35.371Z,42.01
2019-05-29T08:33:10.483Z,41.55
2019-05-29T08:35:43.258Z,41.92
2019-05-29T08:38:15.898Z,42.27
2019-05-29T08:40:47.401Z,42.42
2019-05-29T08:43:18.595Z,41.85
2019-05-29T08:45:52.524Z,42.50
2019-05-29T08:48:24.731Z,42.83
2019-05-29T08:50:55.867Z,41.89
2019-05-29T08:53:26.909Z,42.89
2019-05-29T08:55:59.410Z,42.70
2019-05-29T08:58:30.476Z,43.30
2019-05-29T09:01:02.359Z,43.87
2019-05-29T09:03:33.392Z,41.67
2019-05-29T09:06:08.863Z,42.75
2019-05-29T09:08:37.339Z,42.56
2019-05-29T09:11:08.450Z,43.30
2019-05-29T09:13:40.963Z,42.94
2019-05-29T09:16:12.807Z,42.96
2019-05-29T09:18:45.304Z,42.57
2019-05-29T09:21:19.073Z,43.77
2019-05-29T09:23:50.294Z,42.33
2019-05-29T09:26:24.647Z,42.30
2019-05-29T09:28:54.215Z,42.71
2019-05-29T09:31:25.416Z,42.68
2019-05-29T09:33:58.106Z,43.06
2019-05-29T09:36:29.179Z,43.41
2019-05-29T09:39:00.196Z,43.89
2019-05-29T09:41:31.318Z,44.09
2019-05-29T09:44:02.545Z,45.18
2019-05-29T09:46:33.865Z,42.14
2019-05-29T09:49:05.187Z,43.59
2019-05-29T09:51:36.324Z,44.05
2019-05-29T09:54:07.392Z,44.30
2019-05-29T09:56:38.485Z,44.38
2019-05-29T09:59:09.523Z,43.02
2019-05-29T10:01:41.399Z,44.31
2019-05-29T10:04:12.450Z,43.90
2019-05-29T10:06:43.593Z,43.25
2019-05-29T10:09:14.697Z,42.76
2019-05-29T10:11:48.825Z,43.66
2019-05-29T10:14:19.865Z,42.52
2019-05-29T10:16:50.997Z,44.13
2019-05-29T10:19:23.725Z,45.93
2019-05-29T10:21:54.879Z,44.79
2019-05-29T10:24:27.093Z,45.10
2019-05-29T10:26:59.052Z,44.78
2019-05-29T10:29:31.001Z,43.68
2019-05-29T10:32:04.689Z,45.30
2019-05-29T10:34:38.930Z,44.25
2019-05-29T10:37:10.070Z,45.56
2019-05-29T10:39:42.883Z,45.06
2019-05-29T10:42:15.417Z,44.33
2019-05-29T10:44:49.068Z,45.08
2019-05-29T10:47:21.841Z,45.55
2019-05-29T10:49:53.811Z,45.38
2019-05-29T10:52:28.134Z,44.92
2019-05-29T10:54:59.171Z,44.05
2019-05-29T10:57:30.519Z,44.13
2019-05-29T11:00:04.628Z,42.26
2019-05-29T11:02:36.536Z,43.91
2019-05-29T11:05:07.724Z,44.56
2019-05-29T11:07:38.952Z,43.98
2019-05-29T11:10:13.607Z,44.41
2019-05-29T11:12:44.279Z,44.10
2019-05-29T11:15:21.544Z,43.64
2019-05-29T11:17:50.998Z,44.04
2019-05-29T11:20:22.947Z,44.19
2019-05-29T11:22:55.682Z,43.48
2019-05-29T11:25:27.897Z,43.01
2019-05-29T11:27:59.010Z,42.64
2019-05-29T11:30:30.096Z,42.76
2019-05-29T11:33:02.015Z,43.11
2019-05-29T11:35:33.137Z,42.44
2019-05-29T11:38:05.769Z,43.30
2019-05-29T11:40:37.014Z,41.77
2019-05-29T11:43:08.231Z,43.87
2019-05-29T11:45:39.347Z,44.66
2019-05-29T11:48:11.312Z,45.08
2019-05-29T11:50:43.375Z,45.00
2019-05-29T11:53:14.422Z,44.96
2019-05-29T11:55:45.453Z,43.56
2019-05-29T11:58:30.578Z,44.63
2019-05-29T12:00:49.289Z,43.95
2019-05-29T12:03:22.792Z,44.02
2019-05-29T12:05:55.475Z,42.72
2019-05-29T12:08:26.664Z,43.42
2019-05-29T12:10:57.702Z,41.96
2019-05-29T12:13:28.775Z,42.49
2019-05-29T12:16:01.822Z,43.17
2019-05-29T12:18:33.803Z,43.23
2019-05-29T12:21:04.835Z,44.68
2019-05-29T12:23:35.980Z,44.90
2019-05-29T12:26:21.986Z,44.60
2019-05-29T12:28:39.768Z,44.19
2019-05-29T12:31:10.846Z,44.10
2019-05-29T12:33:42.732Z,44.33
2019-05-29T12:36:15.465Z,43.59
2019-05-29T12:38:46.516Z,41.23
2019-05-29T12:41:17.663Z,42.59
2019-05-29T12:43:50.371Z,42.26
2019-05-29T12:46:21.413Z,42.12
2019-05-29T12:48:53.465Z,42.33
2019-05-29T12:51:24.556Z,41.68
2019-05-29T12:53:57.897Z,41.82
2019-05-29T12:56:32.278Z,42.91
2019-05-29T12:59:04.681Z,41.88
2019-05-29T13:01:35.804Z,40.92
2019-05-29T13:04:07.814Z,42.79
2019-05-29T13:06:39.984Z,43.54
2019-05-29T13:09:11.027Z,42.59
2019-05-29T13:11:43.485Z,42.17
2019-05-29T13:14:16.059Z,43.04
2019-05-29T13:16:47.116Z,43.24
2019-05-29T13:19:19.822Z,43.36
2019-05-29T13:21:50.903Z,44.76
2019-05-29T13:24:21.947Z,44.15
2019-05-29T13:26:52.972Z,45.39
2019-05-29T13:29:24.115Z,45.36
2019-05-29T13:31:57.126Z,43.82
2019-05-29T13:34:28.004Z,43.50
2019-05-29T13:37:03.438Z,43.14
2019-05-29T13:39:32.141Z,43.93
2019-05-29T13:42:08.850Z,43.68
2019-05-29T13:44:35.979Z,43.35
2019-05-29T13:47:08.462Z,44.37
2019-05-29T13:49:41.260Z,44.98
2019-05-29T13:52:12.781Z,43.81
2019-05-29T13:54:44.021Z,44.41
2019-05-29T13:57:16.646Z,45.09
2019-05-29T13:59:47.716Z,45.24
2019-05-29T14:02:18.739Z,45.54
2019-05-29T14:04:52.754Z,44.71
2019-05-29T14:07:23.790Z,43.75
2019-05-29T14:09:54.872Z,43.37
2019-05-29T14:12:25.922Z,43.40
2019-05-29T14:14:56.986Z,42.25
2019-05-29T14:17:28.033Z,42.13
2019-05-29T14:20:00.510Z,42.44
2019-05-29T14:22:31.610Z,42.79
2019-05-29T14:25:03.232Z,43.37
2019-05-29T14:27:34.286Z,42.99
2019-05-29T14:30:10.931Z,42.77
2019-05-29T14:32:42.214Z,43.25
2019-05-29T14:35:14.293Z,43.71
2019-05-29T14:37:48.543Z,44.03
2019-05-29T14:40:20.769Z,43.17
2019-05-29T14:42:51.890Z,42.25
2019-05-29T14:45:26.062Z,42.80
2019-05-29T14:48:00.328Z,43.42
2019-05-29T14:50:34.621Z,42.77
2019-05-29T14:53:07.209Z,43.51
2019-05-29T14:55:39.296Z,43.45
2019-05-29T14:58:10.334Z,42.86
2019-05-29T15:00:41.505Z,42.92
2019-05-29T15:03:13.587Z,41.78
2019-05-29T15:05:45.585Z,42.58
2019-05-29T15:08:16.643Z,43.33
2019-05-29T15:10:47.724Z,43.77
2019-05-29T15:13:18.754Z,43.57
2019-05-29T15:15:49.858Z,42.81
2019-05-29T15:18:20.921Z,42.86
2019-05-29T15:20:54.322Z,42.78
2019-05-29T15:23:25.399Z,42.35
2019-05-29T15:25:56.479Z,42.11
2019-05-29T15:28:27.534Z,41.91
2019-05-29T15:31:00.165Z,42.04
2019-05-29T15:33:31.346Z,42.74
2019-05-29T15:36:03.500Z,41.99
2019-05-29T15:38:35.406Z,42.46
2019-05-29T15:41:06.681Z,43.20
2019-05-29T15:43:39.149Z,43.48
2019-05-29T15:46:11.776Z,43.39
2019-05-29T15:48:44.756Z,42.80
2019-05-29T15:51:17.166Z,42.12
2019-05-29T15:53:48.295Z,41.86
2019-05-29T15:56:27.430Z,42.24
2019-05-29T15:58:53.596Z,42.30
2019-05-29T16:01:24.676Z,42.21
2019-05-29T16:03:55.728Z,42.60
2019-05-29T16:06:30.614Z,42.08
2019-05-29T16:09:01.659Z,42.20
2019-05-29T16:11:34.294Z,42.72
2019-05-29T16:14:08.925Z,42.84
2019-05-29T16:16:40.027Z,42.18
2019-05-29T16:19:12.088Z,41.85
2019-05-29T16:21:44.084Z,41.58
2019-05-29T16:24:15.151Z,42.11
2019-05-29T16:26:46.241Z,42.16
2019-05-29T16:29:18.200Z,41.77
2019-05-29T16:31:50.106Z,41.24
2019-05-29T16:34:21.974Z,41.84
2019-05-29T16:36:54.870Z,41.58
2019-05-29T16:39:25.921Z,41.65
2019-05-29T16:41:57.059Z,42.01
2019-05-29T16:44:29.601Z,42.44
2019-05-29T16:47:02.374Z,42.93
2019-05-29T16:49:33.438Z,43.11
2019-05-29T16:52:04.771Z,42.74
2019-05-29T16:54:37.389Z,42.10
2019-05-29T16:57:08.448Z,42.14
2019-05-29T16:59:39.509Z,42.64
2019-05-29T17:02:13.542Z,42.48
2019-05-29T17:04:44.847Z,41.95
2019-05-29T17:07:18.363Z,41.62
2019-05-29T17:09:49.424Z,41.69
2019-05-29T17:12:20.578Z,41.98
2019-05-29T17:14:53.083Z,42.60
2019-05-29T17:17:25.701Z,41.62
2019-05-29T17:19:56.751Z,41.39
2019-05-29T17:22:28.750Z,42.11
2019-05-29T17:25:01.403Z,42.68
2019-05-29T17:27:32.470Z,43.01
2019-05-29T17:30:03.624Z,42.94
2019-05-29T17:32:35.493Z,43.05
2019-05-29T17:35:08.904Z,43.69
2019-05-29T17:37:41.944Z,43.13
2019-05-29T17:40:15.022Z,43.23
2019-05-29T17:42:46.096Z,43.39
2019-05-29T17:45:21.350Z,43.95
2019-05-29T17:47:50.836Z,44.15
2019-05-29T17:50:26.352Z,44.85
2019-05-29T17:52:57.119Z,44.89
2019-05-29T17:55:28.215Z,45.09
2019-05-29T17:58:02.476Z,45.42
2019-05-29T18:00:33.707Z,45.65
2019-05-29T18:03:05.403Z,45.96
2019-05-29T18:05:36.958Z,46.28
2019-05-29T18:08:10.696Z,46.34
2019-05-29T18:10:41.745Z,46.93
2019-05-29T18:13:12.876Z,47.06
2019-05-29T18:15:43.998Z,47.18
2019-05-29T18:18:15.196Z,47.32
2019-05-29T18:20:46.346Z,47.27
2019-05-29T18:23:19.977Z,47.58
2019-05-29T18:25:51.105Z,47.77
2019-05-29T18:28:22.307Z,48.19
2019-05-29T18:30:53.344Z,48.59
2019-05-29T18:33:24.926Z,48.52
2019-05-29T18:35:56.094Z,48.63
2019-05-29T18:38:28.732Z,48.83
2019-05-29T18:41:02.435Z,49.26
2019-05-29T18:43:33.547Z,49.59
2019-05-29T18:46:04.606Z,49.79
2019-05-29T18:48:35.717Z,50.15
2019-05-29T18:51:09.846Z,50.26
2019-05-29T18:53:42.552Z,50.69
2019-05-29T18:56:13.629Z,50.97
2019-05-29T18:58:44.768Z,51.54
2019-05-29T19:01:15.821Z,51.54
2019-05-29T19:03:46.920Z,51.78
2019-05-29T19:06:17.963Z,51.94
2019-05-29T19:08:50.717Z,52.21
2019-05-29T19:11:21.913Z,52.59
2019-05-29T19:13:53.030Z,52.88
2019-05-29T19:16:24.105Z,53.16
2019-05-29T19:18:55.233Z,53.37
2019-05-29T19:21:28.437Z,53.78
2019-05-29T19:24:00.434Z,54.29
2019-05-29T19:26:35.360Z,54.40
2019-05-29T19:29:04.600Z,54.88
2019-05-29T19:31:35.660Z,55.14
2019-05-29T19:34:06.810Z,55.63
2019-05-29T19:36:37.876Z,56.06
2019-05-29T19:39:11.042Z,56.41
2019-05-29T19:41:42.885Z,56.79
2019-05-29T19:44:13.981Z,57.15
2019-05-29T19:46:53.772Z,57.49
2019-05-29T19:49:17.872Z,57.71
2019-05-29T19:51:48.948Z,58.25
2019-05-29T19:54:23.113Z,58.52
2019-05-29T19:56:54.165Z,58.86
2019-05-29T19:59:27.943Z,59.37
2019-05-29T20:01:59.049Z,59.83
2019-05-29T20:04:30.600Z,59.92
2019-05-29T20:07:01.667Z,60.39
2019-05-29T20:09:33.599Z,60.58
2019-05-29T20:12:07.404Z,60.97
2019-05-29T20:14:38.501Z,61.28
2019-05-29T20:17:09.582Z,61.66
2019-05-29T20:19:41.054Z,61.88
2019-05-29T20:22:12.223Z,62.19
2019-05-29T20:24:45.696Z,62.31
2019-05-29T20:27:16.726Z,62.56
2019-05-29T20:29:49.241Z,62.67
2019-05-29T20:32:23.027Z,63.21
2019-05-29T20:34:54.101Z,63.22
2019-05-29T20:37:25.253Z,63.54
2019-05-29T20:39:57.310Z,63.59
2019-05-29T20:42:30.111Z,63.82
2019-05-29T20:45:04.455Z,63.97
2019-05-29T20:47:36.127Z,64.05
2019-05-29T20:50:08.958Z,64.42
2019-05-29T20:52:41.346Z,64.72
2019-05-29T20:55:13.682Z,64.82
2019-05-29T20:57:46.397Z,64.84
2019-05-29T21:00:18.709Z,65.19
2019-05-29T21:02:49.725Z,65.35
2019-05-29T21:05:22.344Z,65.44
2019-05-29T21:07:53.410Z,65.54
2019-05-29T21:10:26.282Z,66.31
2019-05-29T21:12:58.938Z,66.32
2019-05-29T21:15:30.050Z,66.22
2019-05-29T21:18:01.090Z,66.38
2019-05-29T21:20:32.209Z,66.44
2019-05-29T21:23:03.343Z,66.53
2019-05-29T21:25:36.824Z,67.16
2019-05-29T21:28:08.086Z,66.95
2019-05-29T21:30:39.469Z,67.08
2019-05-29T21:33:10.691Z,67.34
2019-05-29T21:35:42.224Z,67.48
2019-05-29T21:38:13.281Z,68.11
2019-05-29T21:40:45.206Z,67.87
2019-05-29T21:43:17.068Z,68.20
2019-05-29T21:45:48.306Z,68.15
2019-05-29T21:48:19.398Z,68.34
2019-05-29T21:50:50.444Z,68.18
2019-05-29T21:53:21.508Z,68.56
2019-05-29T21:55:53.403Z,68.96
2019-05-29T21:58:25.992Z,68.98
2019-05-29T22:00:57.473Z,69.04
2019-05-29T22:03:28.735Z,69.21
2019-05-29T22:05:59.940Z,69.59
2019-05-29T22:08:31.047Z,69.85
2019-05-29T22:11:02.316Z,69.57
2019-05-29T22:13:33.475Z,69.48
2019-05-29T22:16:06.044Z,69.88
2019-05-29T22:18:40.326Z,69.93
2019-05-29T22:21:11.414Z,69.71
2019-05-29T22:23:42.850Z,69.86
2019-05-29T22:26:14.906Z,70.22
2019-05-29T22:28:47.583Z,70.18
2019-05-29T22:31:20.137Z,70.36
2019-05-29T22:33:51.519Z,70.36
2019-05-29T22:36:22.724Z,70.71
2019-05-29T22:38:55.517Z,70.68
2019-05-29T22:41:27.435Z,71.00
2019-05-29T22:43:59.765Z,71.21
2019-05-29T22:46:32.595Z,70.95
2019-05-29T22:49:03.658Z,71.04
2019-05-29T22:51:36.324Z,70.81
2019-05-29T22:54:07.361Z,71.15
2019-05-29T22:56:39.324Z,71.30
2019-05-29T22:59:10.394Z,71.46
2019-05-29T23:01:41.477Z,71.78
2019-05-29T23:04:13.983Z,71.97
2019-05-29T23:06:48.062Z,72.04
2019-05-29T23:09:22.424Z,72.03
2019-05-29T23:11:54.156Z,72.49
2019-05-29T23:14:27.947Z,72.40
2019-05-29T23:16:59.040Z,72.79
2019-05-29T23:19:30.080Z,72.85
2019-05-29T23:22:02.870Z,72.91
2019-05-29T23:24:33.952Z,72.99
2019-05-29T23:27:07.342Z,72.75
2019-05-29T23:29:49.044Z,72.86
2019-05-29T23:32:14.084Z,72.89
2019-05-29T23:34:46.624Z,72.75
2019-05-29T23:37:17.694Z,73.00
2019-05-29T23:39:48.762Z,72.92
2019-05-29T23:42:20.656Z,73.14
2019-05-29T23:44:53.938Z,73.34
2019-05-29T23:47:26.816Z,73.23
2019-05-29T23:49:57.881Z,73.52
2019-05-29T23:52:29.051Z,73.52
2019-05-29T23:55:00.090Z,73.46
2019-05-29T23:57:34.974Z,73.78
